createdAt,value
2023-03-23T15:58:29.669Z,14.49
2023-03-23T16:00:32.726Z,14.49
2023-03-23T16:02:36.747Z,14.36
2023-03-23T16:04:40.426Z,14.40
2023-03-23T16:06:44.743Z,14.49
2023-03-23T16:08:53.746Z,14.44
2023-03-23T16:10:57.212Z,14.43
2023-03-23T16:13:00.892Z,14.37
2023-03-23T16:15:06.493Z,14.50
2023-03-23T16:17:13.832Z,14.58
2023-03-23T16:19:18.133Z,14.49
2023-03-23T16:21:21.071Z,14.57
2023-03-23T16:23:24.349Z,14.52
2023-03-23T16:25:27.314Z,14.58
2023-03-23T16:27:30.221Z,14.39
2023-03-23T16:29:54.291Z,14.28
2023-03-23T16:31:57.603Z,14.42
2023-03-23T16:34:00.578Z,14.33
2023-03-23T16:36:04.590Z,14.48
2023-03-23T16:38:09.206Z,14.48
2023-03-23T16:40:13.751Z,14.41
2023-03-23T16:42:16.660Z,14.34
2023-03-23T16:44:19.530Z,14.36
2023-03-23T16:46:22.800Z,14.30
2023-03-23T16:48:27.236Z,14.17
2023-03-23T16:50:32.534Z,14.10
2023-03-23T16:52:35.847Z,14.20
2023-03-23T16:54:49.698Z,14.20
2023-03-23T16:56:52.853Z,14.13
2023-03-23T16:58:55.906Z,14.25
2023-03-23T17:00:59.170Z,14.02
2023-03-23T17:03:02.197Z,13.99
2023-03-23T17:05:07.364Z,13.83
2023-03-23T17:07:10.461Z,13.87
2023-03-23T17:09:13.305Z,14.00
2023-03-23T17:11:16.164Z,13.97
2023-03-23T17:13:19.122Z,13.92
2023-03-23T17:15:22.070Z,13.90
2023-03-23T17:17:25.577Z,14.00
2023-03-23T17:19:29.189Z,13.94
2023-03-23T17:21:34.268Z,13.90
2023-03-23T17:23:38.252Z,13.83
2023-03-23T17:25:41.233Z,13.97
2023-03-23T17:27:44.289Z,13.84
2023-03-23T17:29:48.338Z,13.83
2023-03-23T17:31:52.014Z,13.89
2023-03-23T17:33:57.252Z,13.84
2023-03-23T17:36:00.241Z,13.91
2023-03-23T17:38:04.577Z,13.79
2023-03-23T17:40:10.320Z,13.84
2023-03-23T17:42:14.069Z,13.76
2023-03-23T17:44:18.362Z,13.78
2023-03-23T17:46:22.201Z,13.59
2023-03-23T17:48:25.175Z,13.60
2023-03-23T17:50:30.017Z,13.63
2023-03-23T17:52:33.316Z,13.62
2023-03-23T17:54:38.138Z,13.73
2023-03-23T17:56:41.354Z,13.73
2023-03-23T17:58:44.527Z,13.67
2023-03-23T18:00:47.477Z,13.71
2023-03-23T18:02:50.866Z,13.73
2023-03-23T18:04:54.036Z,13.96
2023-03-23T18:06:57.757Z,13.94
2023-03-23T18:09:00.668Z,13.92
2023-03-23T18:11:05.446Z,13.98
2023-03-23T18:13:09.707Z,14.06
2023-03-23T18:15:13.338Z,14.05
2023-03-23T18:17:16.743Z,14.08
2023-03-23T18:19:19.782Z,14.09
2023-03-23T18:21:23.343Z,14.01
2023-03-23T18:23:26.329Z,14.01
2023-03-23T18:25:29.216Z,14.04
2023-03-23T18:27:33.828Z,13.87
2023-03-23T18:29:37.346Z,13.90
2023-03-23T18:31:57.267Z,14.05
2023-03-23T18:34:00.611Z,14.02
2023-03-23T18:36:03.602Z,13.94
2023-03-23T18:38:06.735Z,13.95
2023-03-23T18:40:14.425Z,13.96
2023-03-23T18:42:17.382Z,13.98
2023-03-23T18:44:21.899Z,13.88
2023-03-23T18:46:25.069Z,13.88
2023-03-23T18:48:28.385Z,13.82
2023-03-23T18:50:31.990Z,13.84
2023-03-23T18:52:35.067Z,13.88
2023-03-23T18:54:40.416Z,13.91
2023-03-23T18:56:43.300Z,13.79
2023-03-23T18:58:46.870Z,13.74
2023-03-23T19:00:52.367Z,13.72
2023-03-23T19:03:08.356Z,13.77
2023-03-23T19:05:12.293Z,13.61
2023-03-23T19:07:16.969Z,13.50
2023-03-23T19:09:20.191Z,13.57
2023-03-23T19:11:26.060Z,13.58
2023-03-23T19:13:30.263Z,13.46
2023-03-23T19:15:33.852Z,13.61
2023-03-23T19:17:38.850Z,13.66
2023-03-23T19:19:43.733Z,13.69
2023-03-23T19:21:47.552Z,13.67
2023-03-23T19:23:50.636Z,13.73
2023-03-23T19:25:55.489Z,13.75
2023-03-23T19:28:50.049Z,13.63
2023-03-23T19:30:21.837Z,13.56
2023-03-23T19:32:25.645Z,13.51
2023-03-23T19:34:30.748Z,13.43
2023-03-23T19:40:55.707Z,13.34
2023-03-23T19:43:01.449Z,13.45
2023-03-23T19:45:05.205Z,13.44
2023-03-23T19:47:09.397Z,13.31
2023-03-23T19:49:14.942Z,13.31
2023-03-23T19:51:21.105Z,13.22
2023-03-23T19:53:24.592Z,13.33
2023-03-23T19:55:27.567Z,13.36
2023-03-23T19:57:30.546Z,13.23
2023-03-23T19:59:33.996Z,13.29
2023-03-23T20:01:37.389Z,13.28
2023-03-23T20:03:42.355Z,13.23
2023-03-23T20:05:45.743Z,13.34
2023-03-23T20:07:51.960Z,13.32
2023-03-23T20:09:55.240Z,13.25
2023-03-23T20:11:58.456Z,13.32
2023-03-23T20:14:01.489Z,13.05
2023-03-23T20:16:04.803Z,13.32
2023-03-23T20:18:08.313Z,13.36
2023-03-23T20:20:11.825Z,13.44
2023-03-23T20:22:16.889Z,13.19
2023-03-23T20:24:22.209Z,13.30
2023-03-23T20:26:27.329Z,13.38
2023-03-23T20:28:31.053Z,13.21
2023-03-23T20:30:34.342Z,13.35
2023-03-23T20:32:40.833Z,13.38
2023-03-23T20:34:48.762Z,13.21
2023-03-23T20:36:52.008Z,13.41
2023-03-23T20:38:55.366Z,13.23
2023-03-23T20:40:59.961Z,13.40
2023-03-23T20:43:03.801Z,13.23
2023-03-23T20:45:08.648Z,13.37
2023-03-23T20:47:15.353Z,13.23
2023-03-23T20:49:19.822Z,13.34
2023-03-23T20:51:22.728Z,13.15
2023-03-23T20:53:28.749Z,13.42
2023-03-23T20:55:31.643Z,13.34
2023-03-23T20:57:37.831Z,13.25
2023-03-23T20:59:40.838Z,13.34
2023-03-23T21:01:44.806Z,13.39
2023-03-23T21:03:51.051Z,13.45
2023-03-23T21:05:54.355Z,13.33
2023-03-23T21:07:58.050Z,13.43
2023-03-23T21:10:01.199Z,13.30
2023-03-23T21:12:06.225Z,13.24
2023-03-23T21:14:11.551Z,13.21
2023-03-23T21:16:15.074Z,13.44
2023-03-23T21:18:18.217Z,13.29
2023-03-23T21:20:21.289Z,13.17
2023-03-23T21:22:24.367Z,13.29
2023-03-23T21:24:29.076Z,13.40
2023-03-23T21:26:33.848Z,13.38
2023-03-23T21:28:36.854Z,13.29
2023-03-23T21:30:45.825Z,13.28
2023-03-23T21:32:49.607Z,13.33
2023-03-23T21:34:52.720Z,13.32
2023-03-23T21:36:55.690Z,13.24
2023-03-23T21:38:59.017Z,13.48
2023-03-23T21:41:08.912Z,13.30
2023-03-23T21:43:16.459Z,13.33
2023-03-23T21:45:20.964Z,13.37
2023-03-23T21:47:26.631Z,13.35
2023-03-23T21:49:30.066Z,13.42
2023-03-23T21:51:34.330Z,13.37
2023-03-23T21:53:37.505Z,13.51
2023-03-23T21:55:41.134Z,13.60
2023-03-23T21:57:44.115Z,13.44
2023-03-23T21:59:47.611Z,13.44
2023-03-23T22:01:50.543Z,13.50
2023-03-23T22:03:54.956Z,13.42
2023-03-23T22:05:59.358Z,13.41
2023-03-23T22:08:02.325Z,13.53
2023-03-23T22:10:06.708Z,13.30
2023-03-23T22:12:09.917Z,13.33
2023-03-23T22:14:14.830Z,13.27
2023-03-23T22:16:19.255Z,13.37
2023-03-23T22:18:22.341Z,13.33
2023-03-23T22:20:27.236Z,13.36
2023-03-23T22:22:30.664Z,13.19
2023-03-23T22:24:33.925Z,13.32
2023-03-23T22:26:36.907Z,13.18
2023-03-23T22:28:40.845Z,13.11
2023-03-23T22:30:44.104Z,13.20
2023-03-23T22:32:48.507Z,13.17
2023-03-23T22:34:51.925Z,13.34
2023-03-23T22:36:57.413Z,13.27
2023-03-23T22:39:01.044Z,13.12
2023-03-23T22:41:07.500Z,13.26
2023-03-23T22:43:10.729Z,13.28
2023-03-23T22:45:13.937Z,12.95
2023-03-23T22:47:16.916Z,12.94
2023-03-23T22:49:20.089Z,12.99
2023-03-23T22:51:24.596Z,12.85
2023-03-23T22:53:29.069Z,12.86
2023-03-23T22:55:32.085Z,12.87
2023-03-23T22:57:35.612Z,12.90
2023-03-23T22:59:38.813Z,12.89
2023-03-23T23:01:42.165Z,12.92
2023-03-23T23:03:45.599Z,12.93
2023-03-23T23:05:52.487Z,12.85
2023-03-23T23:08:03.184Z,12.86
2023-03-23T23:10:09.214Z,12.80
2023-03-23T23:12:14.085Z,12.76
2023-03-23T23:14:17.094Z,12.83
2023-03-23T23:16:22.193Z,12.81
2023-03-23T23:18:26.794Z,12.68
2023-03-23T23:20:30.693Z,12.73
2023-03-23T23:22:34.086Z,12.71
2023-03-23T23:24:37.577Z,12.59
2023-03-23T23:26:44.552Z,12.70
2023-03-23T23:28:48.544Z,12.43
2023-03-23T23:30:52.119Z,12.41
2023-03-23T23:32:56.608Z,12.61
2023-03-23T23:34:59.717Z,12.47
2023-03-23T23:37:02.890Z,12.44
2023-03-23T23:39:06.798Z,12.62
2023-03-23T23:41:10.560Z,12.46
2023-03-23T23:43:16.657Z,12.47
2023-03-23T23:45:20.382Z,12.44
2023-03-23T23:47:23.424Z,12.45
2023-03-23T23:49:27.672Z,12.42
2023-03-23T23:51:33.607Z,12.47
2023-03-23T23:53:36.853Z,12.44
2023-03-23T23:55:40.927Z,12.46
2023-03-23T23:57:44.260Z,12.50
2023-03-23T23:59:51.423Z,12.41
